Terminal Aerodrome Forecast
Issued by NWS Lake Charles, LA

Home | Current Version | Previous Version | Text Only | Print | Product List | Glossary On
Versions: 1 2 3 4 5 6 7 8 9 10 11 12 13
540
FTUS44 KLCH 052325
TAFBPT
TAF
KBPT 052325Z 0600/0624 11005KT P6SM FEW250
     FM061200 12006KT P6SM VCSH BKN080
     FM061500 13008KT P6SM -RA BKN040
     FM061800 03008KT P6SM -RA OVC035=

USA.gov is the U.S. government's official web portal to all federal, state and local government web resources and services.